Time;durP1;ratioP1;P1;durP2;ratioP2;P2;SDS_P1;SDS_P2;PMS_P1;PMS_P2;Temp;Humidity;BMP_temperature;BMP_pressure;BME280_temperature;BME280_humidity;BME280_pressure;Samples;Min_cycle;Max_cycle;Signal;HPM_P1;HPM_P2
2023/03/27 00:00:15;;;;;;;;;;;;;;;;;;5096486;28;793;-74
2023/03/27 00:02:41;;;;;;;;;;;;;;;;;;5095672;28;863;-74
2023/03/27 00:05:06;;;;;;;;;;;;;;;;;;5094286;28;1240;-74
2023/03/27 00:07:34;;;;;;;;;;;;;;;;;;5094243;28;876;-74
2023/03/27 00:10:00;;;;;;;;;;;;;;;;;;5094487;28;1318;-74
2023/03/27 00:12:25;;;;;;;;;;;;;;;;;;5094794;28;1201;-74
2023/03/27 00:14:51;;;;;;;;;;;;;;;;;;5095429;28;836;-74
2023/03/27 00:17:16;;;;;;;;;;;;;;;;;;5094277;28;1906;-74
2023/03/27 00:19:42;;;;;;;;;;;;;;;;;;5094320;28;1384;-74
2023/03/27 00:22:08;;;;;;;;;;;;;;;;;;5094921;28;1274;-74
2023/03/27 00:24:35;;;;;;;;;;;;;;;;;;5094710;28;895;-74
2023/03/27 00:27:00;;;;;;;;;;;;;;;;;;5096025;28;903;-74
2023/03/27 00:29:26;;;;;;;;;;;;;;;;;;5094962;28;1317;-75
2023/03/27 00:31:51;;;;;;;;;;;;;;;;;;5077525;28;1281;-74
2023/03/27 00:34:16;;;;;;;;;;;;;;;;;;5094712;28;1323;-74
2023/03/27 00:36:42;;;;;;;;;;;;;;;;;;5096726;28;1898;-74
2023/03/27 00:39:09;;;;;;;;;;;;;;;;;;5096207;28;840;-74
2023/03/27 00:41:34;;;;;;;;;;;;;;;;;;5094355;28;1324;-74
2023/03/27 00:43:59;;;;;;;;;;;;;;;;;;5078005;28;1187;-74
2023/03/27 00:46:55;;;;;;;;;;;;;;;;;;5095192;28;1114;-74
2023/03/27 00:49:21;;;;;;;;;;;;;;;;;;5081854;28;1172;-74
2023/03/27 00:51:47;;;;;;;;;;;;;;;;;;5095606;28;864;-74
2023/03/27 00:54:20;;;;;;;;;;;;;;;;;;5095586;28;836;-74
2023/03/27 00:56:48;;;;;;;;;;;;;;;;;;5095025;28;1969;-74
2023/03/27 00:59:16;;;;;;;;;;;;;;;;;;5093133;28;1193;-74
2023/03/27 01:01:43;;;;;;;;;;;;;;;;;;5093407;28;1302;-74
2023/03/27 01:04:08;;;;;;;;;;;;;;;;;;5094755;28;844;-74
2023/03/27 01:06:34;;;;;;;;;;;;;;;;;;5093319;28;1167;-74
2023/03/27 01:08:59;;;;;;;;;;;;;;;;;;5092630;28;1343;-73
2023/03/27 01:11:28;;;;;;;;;;;;;;;;;;5094299;28;840;-73
2023/03/27 01:14:02;;;;;;;;;;;;;;;;;;5094370;28;990;-73
2023/03/27 01:16:27;;;;;;;;;;;;;;;;;;5093426;28;1906;-73
2023/03/27 01:19:11;;;;;;;;;;;;;;;;;;5094276;28;824;-73
2023/03/27 01:21:47;;;;;;;;;;;;;;;;;;5092860;28;1185;-73
2023/03/27 01:24:15;;;;;;;;;;;;;;;;;;5092591;28;1154;-73
2023/03/27 01:26:47;;;;;;;;;;;;;;;;;;5092919;28;1293;-73
2023/03/27 01:29:12;;;;;;;;;;;;;;;;;;5092825;28;1312;-73
2023/03/27 01:31:47;;;;;;;;;;;;;;;;;;5093124;28;1218;-72
2023/03/27 01:34:31;;;;;;;;;;;;;;;;;;5092878;28;1325;-73
2023/03/27 01:37:12;;;;;;;;;;;;;;;;;;5093473;28;1910;-73
2023/03/27 01:39:56;;;;;;;;;;;;;;;;;;5092978;28;1285;-73
2023/03/27 01:42:29;;;;;;;;;;;;;;;;;;5093774;28;1460;-74
2023/03/27 01:45:07;;;;;;;;;;;;;;;;;;5092283;28;1329;-73
2023/03/27 01:47:38;;;;;;;;;;;;;;;;;;5092991;28;1261;-73
2023/03/27 01:50:12;;;;;;;;;;;;;;;;;;5093636;28;864;-73
2023/03/27 01:52:39;;;;;;;;;;;;;;;;;;5092411;28;1166;-73
2023/03/27 01:55:08;;;;;;;;;;;;;;;;;;5093669;28;877;-74
2023/03/27 01:57:44;;;;;;;;;;;;;;;;;;5092646;28;1905;-74
2023/03/27 02:00:16;;;;;;;;;;;;;;;;;;5093822;28;923;-73
2023/03/27 02:02:44;;;;;;;;;;;;;;;;;;5094589;28;903;-73
2023/03/27 02:05:16;;;;;;;;;;;;;;;;;;5092727;28;1304;-73
2023/03/27 02:07:47;;;;;;;;;;;;;;;;;;5094666;28;867;-73
2023/03/27 02:10:17;;;;;;;;;;;;;;;;;;5093995;28;1007;-73
2023/03/27 02:12:45;;;;;;;;;;;;;;;;;;5094081;28;864;-73
2023/03/27 02:15:14;;;;;;;;;;;;;;;;;;5093119;28;1343;-74
2023/03/27 02:17:46;;;;;;;;;;;;;;;;;;5093528;28;1993;-74
2023/03/27 02:20:16;;;;;;;;;;;;;;;;;;5094561;28;840;-74
2023/03/27 02:22:44;;;;;;;;;;;;;;;;;;5093908;28;876;-74
2023/03/27 02:25:39;;;;;;;;;;;;;;;;;;5092402;28;1333;-73
2023/03/27 02:28:10;;;;;;;;;;;;;;;;;;5084810;28;1115;-74
2023/03/27 02:30:39;;;;;;;;;;;;;;;;;;5093156;28;1197;-74
2023/03/27 02:33:04;;;;;;;;;;;;;;;;;;5091877;28;1170;-74
2023/03/27 02:35:38;;;;;;;;;;;;;;;;;;5093544;28;809;-73
2023/03/27 02:38:10;;;;;;;;;;;;;;;;;;5092739;28;1913;-74
2023/03/27 02:40:35;;;;;;;;;;;;;;;;;;5091907;28;1238;-73
2023/03/27 02:43:03;;;;;;;;;;;;;;;;;;5092752;28;888;-74
2023/03/27 02:45:42;;;;;;;;;;;;;;;;;;5093020;28;919;-74
2023/03/27 02:48:16;;;;;;;;;;;;;;;;;;5090948;28;1158;-73
2023/03/27 02:50:52;;;;;;;;;;;;;;;;;;5092757;28;899;-74
2023/03/27 02:53:20;;;;;;;;;;;;;;;;;;5092163;28;1301;-74
2023/03/27 02:55:50;;;;;;;;;;;;;;;;;;5092257;28;1257;-74
2023/03/27 02:58:19;;;;;;;;;;;;;;;;;;5092696;28;1934;-73
2023/03/27 03:00:47;;;;;;;;;;;;;;;;;;5093015;28;930;-74
2023/03/27 03:03:26;;;;;;;;;;;;;;;;;;5092742;28;875;-73
2023/03/27 03:05:53;;;;;;;;;;;;;;;;;;5095121;28;1277;-74
2023/03/27 03:08:20;;;;;;;;;;;;;;;;;;5097630;28;1166;-75
2023/03/27 03:10:47;;;;;;;;;;;;;;;;;;5099346;28;1167;-73
2023/03/27 03:13:12;;;;;;;;;;;;;;;;;;5097113;28;1337;-73
2023/03/27 03:15:38;;;;;;;;;;;;;;;;;;5098142;28;915;-73
2023/03/27 03:18:03;;;;;;;;;;;;;;;;;;5098321;28;1971;-73
2023/03/27 03:20:28;;;;;;;;;;;;;;;;;;5105651;28;1332;-75
2023/03/27 03:22:55;;;;;;;;;;;;;;;;;;5109111;28;784;-75
2023/03/27 03:25:20;;;;;;;;;;;;;;;;;;5102208;28;1198;-73
2023/03/27 03:27:45;;;;;;;;;;;;;;;;;;5104141;28;1266;-74
2023/03/27 03:30:11;;;;;;;;;;;;;;;;;;5094597;28;1131;-73
2023/03/27 03:32:38;;;;;;;;;;;;;;;;;;5097699;28;1019;-73
2023/03/27 03:35:04;;;;;;;;;;;;;;;;;;5083439;28;1305;-74
2023/03/27 03:37:29;;;;;;;;;;;;;;;;;;5099088;28;1905;-73
2023/03/27 03:39:54;;;;;;;;;;;;;;;;;;5100019;28;1249;-73
2023/03/27 03:42:20;;;;;;;;;;;;;;;;;;5101230;28;1254;-73
2023/03/27 03:44:45;;;;;;;;;;;;;;;;;;5100142;28;1230;-74
2023/03/27 03:47:10;;;;;;;;;;;;;;;;;;5099455;28;1185;-73
2023/03/27 03:49:36;;;;;;;;;;;;;;;;;;5082979;28;1255;-74
2023/03/27 03:52:02;;;;;;;;;;;;;;;;;;5098819;28;1084;-74
2023/03/27 03:54:27;;;;;;;;;;;;;;;;;;5079465;28;1178;-73
2023/03/27 03:56:52;;;;;;;;;;;;;;;;;;5084737;28;1983;-74
2023/03/27 03:59:17;;;;;;;;;;;;;;;;;;5105370;28;1219;-73
2023/03/27 04:01:43;;;;;;;;;;;;;;;;;;5100238;28;1160;-74
2023/03/27 04:04:08;;;;;;;;;;;;;;;;;;5102685;28;1116;-73
2023/03/27 04:06:36;;;;;;;;;;;;;;;;;;5105535;28;1301;-74
2023/03/27 04:09:02;;;;;;;;;;;;;;;;;;5115695;28;1229;-73
2023/03/27 04:11:28;;;;;;;;;;;;;;;;;;5117044;28;907;-73
2023/03/27 04:13:53;;;;;;;;;;;;;;;;;;5115261;28;1038;-73
2023/03/27 04:16:18;;;;;;;;;;;;;;;;;;5116386;28;891;-74
2023/03/27 04:18:44;;;;;;;;;;;;;;;;;;5098333;28;1902;-73
2023/03/27 04:21:16;;;;;;;;;;;;;;;;;;5116293;28;908;-73
2023/03/27 04:23:42;;;;;;;;;;;;;;;;;;5116206;28;851;-74
2023/03/27 04:26:10;;;;;;;;;;;;;;;;;;5116034;28;978;-73
2023/03/27 04:28:37;;;;;;;;;;;;;;;;;;5116583;28;824;-74
2023/03/27 04:31:05;;;;;;;;;;;;;;;;;;5114815;28;899;-74
2023/03/27 04:33:33;;;;;;;;;;;;;;;;;;5115859;28;912;-74
2023/03/27 04:35:59;;;;;;;;;;;;;;;;;;5115972;28;883;-73
2023/03/27 04:38:25;;;;;;;;;;;;;;;;;;5114910;28;1936;-73
2023/03/27 04:40:51;;;;;;;;;;;;;;;;;;5115813;28;1231;-73
2023/03/27 04:43:16;;;;;;;;;;;;;;;;;;5114015;28;1178;-73
2023/03/27 04:45:43;;;;;;;;;;;;;;;;;;5115746;28;871;-74
2023/03/27 04:48:08;;;;;;;;;;;;;;;;;;5115398;27;765;-73
2023/03/27 04:50:34;;;;;;;;;;;;;;;;;;5114263;28;1288;-73
2023/03/27 04:53:00;;;;;;;;;;;;;;;;;;5114243;28;880;-73
2023/03/27 04:55:26;;;;;;;;;;;;;;;;;;5100462;28;1274;-73
2023/03/27 04:57:53;;;;;;;;;;;;;;;;;;5094213;28;1919;-74
2023/03/27 05:00:19;;;;;;;;;;;;;;;;;;5093567;28;1293;-73
2023/03/27 05:02:47;;;;;;;;;;;;;;;;;;5095608;28;1092;-74
2023/03/27 05:05:13;;;;;;;;;;;;;;;;;;5077093;28;1380;-73
2023/03/27 05:07:39;;;;;;;;;;;;;;;;;;5094972;28;1169;-74
2023/03/27 05:10:04;;;;;;;;;;;;;;;;;;5077012;28;1305;-74
2023/03/27 05:12:30;;;;;;;;;;;;;;;;;;5095308;28;1080;-74
2023/03/27 05:14:55;;;;;;;;;;;;;;;;;;5077173;28;1246;-74
2023/03/27 05:17:24;;;;;;;;;;;;;;;;;;5093550;28;1902;-73
2023/03/27 05:19:49;;;;;;;;;;;;;;;;;;5096046;28;931;-74
2023/03/27 05:22:15;;;;;;;;;;;;;;;;;;5095467;28;924;-74
2023/03/27 05:24:40;;;;;;;;;;;;;;;;;;5077808;28;1179;-73
2023/03/27 05:27:05;;;;;;;;;;;;;;;;;;5094798;28;904;-73
2023/03/27 05:29:31;;;;;;;;;;;;;;;;;;5095691;28;825;-74
2023/03/27 05:31:56;;;;;;;;;;;;;;;;;;5101451;28;927;-75
2023/03/27 05:34:21;;;;;;;;;;;;;;;;;;5100301;28;1046;-74
2023/03/27 05:36:48;;;;;;;;;;;;;;;;;;5097275;28;1896;-73
2023/03/27 05:39:14;;;;;;;;;;;;;;;;;;5093593;28;1214;-73
2023/03/27 05:41:40;;;;;;;;;;;;;;;;;;5077775;28;1289;-73
2023/03/27 05:44:06;;;;;;;;;;;;;;;;;;5093920;28;1115;-73
2023/03/27 05:46:31;;;;;;;;;;;;;;;;;;5077168;28;1548;-73
2023/03/27 05:48:58;;;;;;;;;;;;;;;;;;5094303;28;905;-73
2023/03/27 05:51:23;;;;;;;;;;;;;;;;;;5093549;28;867;-73
2023/03/27 05:53:48;;;;;;;;;;;;;;;;;;5092809;28;1249;-73
2023/03/27 05:56:14;;;;;;;;;;;;;;;;;;5091848;28;920;-73
2023/03/27 05:58:39;;;;;;;;;;;;;;;;;;5093149;28;1910;-73
2023/03/27 06:01:04;;;;;;;;;;;;;;;;;;5093170;28;983;-73
2023/03/27 06:03:30;;;;;;;;;;;;;;;;;;5093885;28;904;-73
2023/03/27 06:05:58;;;;;;;;;;;;;;;;;;5093119;28;1035;-73
2023/03/27 06:08:25;;;;;;;;;;;;;;;;;;5093090;28;911;-73
2023/03/27 06:10:50;;;;;;;;;;;;;;;;;;5076049;28;1262;-73
2023/03/27 06:13:16;;;;;;;;;;;;;;;;;;5092190;28;1292;-73
2023/03/27 06:15:42;;;;;;;;;;;;;;;;;;5093805;28;1521;-77
2023/03/27 06:18:08;;;;;;;;;;;;;;;;;;5094839;28;1901;-77
2023/03/27 06:20:34;;;;;;;;;;;;;;;;;;5076487;28;1183;-77
2023/03/27 06:23:00;;;;;;;;;;;;;;;;;;5094374;28;859;-77
2023/03/27 06:25:26;;;;;;;;;;;;;;;;;;5092903;28;1296;-78
2023/03/27 06:27:52;;;;;;;;;;;;;;;;;;5093766;28;895;-78
2023/03/27 06:30:19;;;;;;;;;;;;;;;;;;5092082;28;1300;-77
2023/03/27 06:32:49;;;;;;;;;;;;;;;;;;5092343;28;1119;-77
2023/03/27 06:35:15;;;;;;;;;;;;;;;;;;5092068;28;1146;-76
2023/03/27 06:37:40;;;;;;;;;;;;;;;;;;5093497;28;1910;-78
2023/03/27 06:40:08;;;;;;;;;;;;;;;;;;5074624;28;1282;-78
2023/03/27 06:42:35;;;;;;;;;;;;;;;;;;5092162;28;824;-78
2023/03/27 06:45:01;;;;;;;;;;;;;;;;;;5091714;28;1388;-77
2023/03/27 06:47:28;;;;;;;;;;;;;;;;;;5093584;28;824;-77
2023/03/27 06:49:53;;;;;;;;;;;;;;;;;;5092068;28;1261;-74
2023/03/27 06:52:19;;;;;;;;;;;;;;;;;;5093283;28;907;-74
2023/03/27 06:54:45;;;;;;;;;;;;;;;;;;5075197;28;1194;-74
2023/03/27 06:57:11;;;;;;;;;;;;;;;;;;5091731;28;2330;-74
2023/03/27 06:59:37;;;;;;;;;;;;;;;;;;5093388;28;876;-73
2023/03/27 07:02:02;;;;;;;;;;;;;;;;;;5105513;28;1274;-74
2023/03/27 07:04:28;;;;;;;;;;;;;;;;;;5112199;28;903;-73
2023/03/27 07:06:53;;;;;;;;;;;;;;;;;;5111265;28;907;-73
2023/03/27 07:09:18;;;;;;;;;;;;;;;;;;5112710;28;832;-73
2023/03/27 07:11:43;;;;;;;;;;;;;;;;;;5094755;28;1160;-73
2023/03/27 07:14:09;;;;;;;;;;;;;;;;;;5111169;28;1223;-73
2023/03/27 07:16:34;;;;;;;;;;;;;;;;;;5112976;28;905;-73
2023/03/27 07:19:00;;;;;;;;;;;;;;;;;;5112735;28;1910;-73
2023/03/27 07:21:25;;;;;;;;;;;;;;;;;;5110733;28;773;-73
2023/03/27 07:23:51;;;;;;;;;;;;;;;;;;5094156;28;1297;-73
2023/03/27 07:26:16;;;;;;;;;;;;;;;;;;5094184;28;1107;-73
2023/03/27 07:28:43;;;;;;;;;;;;;;;;;;5111362;28;1178;-73
2023/03/27 07:31:12;;;;;;;;;;;;;;;;;;5094485;28;1202;-73
2023/03/27 07:33:38;;;;;;;;;;;;;;;;;;5111113;28;1170;-73
2023/03/27 07:36:07;;;;;;;;;;;;;;;;;;5111510;28;1206;-72
2023/03/27 07:38:33;;;;;;;;;;;;;;;;;;5112899;28;1901;-73
2023/03/27 07:41:04;;;;;;;;;;;;;;;;;;5112954;28;1162;-73
2023/03/27 07:43:30;;;;;;;;;;;;;;;;;;5112819;28;888;-73
2023/03/27 07:45:56;;;;;;;;;;;;;;;;;;5095041;28;1186;-73
2023/03/27 07:48:21;;;;;;;;;;;;;;;;;;5112295;28;875;-73
2023/03/27 07:50:47;;;;;;;;;;;;;;;;;;5111170;28;1308;-73
2023/03/27 07:53:13;;;;;;;;;;;;;;;;;;5111180;28;1257;-73
2023/03/27 07:55:40;;;;;;;;;;;;;;;;;;5094601;28;1206;-73
2023/03/27 07:58:05;;;;;;;;;;;;;;;;;;5111460;28;1953;-73
2023/03/27 08:00:34;;;;;;;;;;;;;;;;;;5093486;28;1273;-73
2023/03/27 08:03:05;;;;;;;;;;;;;;;;;;5110990;28;1288;-73
2023/03/27 08:05:30;;;;;;;;;;;;;;;;;;5112179;28;887;-73
2023/03/27 08:07:56;;;;;;;;;;;;;;;;;;5111441;28;983;-73
2023/03/27 08:10:21;;;;;;;;;;;;;;;;;;5111906;28;875;-73
2023/03/27 08:12:46;;;;;;;;;;;;;;;;;;5111083;28;1119;-73
2023/03/27 08:15:12;;;;;;;;;;;;;;;;;;5111017;28;852;-73
2023/03/27 08:17:37;;;;;;;;;;;;;;;;;;5094247;28;1902;-73
2023/03/27 08:20:07;;;;;;;;;;;;;;;;;;5113108;28;946;-73
2023/03/27 08:22:33;;;;;;;;;;;;;;;;;;5115987;28;840;-73
2023/03/27 08:24:59;;;;;;;;;;;;;;;;;;5114902;28;1316;-73
2023/03/27 08:27:24;;;;;;;;;;;;;;;;;;5097321;28;1273;-73
2023/03/27 08:29:50;;;;;;;;;;;;;;;;;;5115296;28;1146;-73
2023/03/27 08:32:15;;;;;;;;;;;;;;;;;;5116289;28;872;-73
2023/03/27 08:34:41;;;;;;;;;;;;;;;;;;5115262;28;924;-73
2023/03/27 08:37:07;;;;;;;;;;;;;;;;;;5114498;28;1898;-73
2023/03/27 08:39:33;;;;;;;;;;;;;;;;;;5114310;28;1170;-73
2023/03/27 08:41:59;;;;;;;;;;;;;;;;;;5114185;28;1211;-74
2023/03/27 08:44:26;;;;;;;;;;;;;;;;;;5113593;28;1336;-74
2023/03/27 08:46:54;;;;;;;;;;;;;;;;;;5115106;28;858;-74
2023/03/27 08:49:20;;;;;;;;;;;;;;;;;;5114459;28;863;-73
2023/03/27 08:51:48;;;;;;;;;;;;;;;;;;5114896;28;891;-74
2023/03/27 08:54:17;;;;;;;;;;;;;;;;;;5113843;28;1237;-74
2023/03/27 08:56:44;;;;;;;;;;;;;;;;;;5114119;28;1965;-73
2023/03/27 08:59:11;;;;;;;;;;;;;;;;;;5116125;28;970;-72
2023/03/27 09:01:59;;;;;;;;;;;;;;;;;;5116573;28;825;-73
2023/03/27 09:04:24;;;;;;;;;;;;;;;;;;5095397;28;1119;-73
2023/03/27 09:06:56;;;;;;;;;;;;;;;;;;5114188;28;1167;-74
2023/03/27 09:09:34;;;;;;;;;;;;;;;;;;5114872;28;879;-73
2023/03/27 09:12:10;;;;;;;;;;;;;;;;;;5113620;28;1162;-73
2023/03/27 09:14:37;;;;;;;;;;;;;;;;;;5113655;28;1304;-73
2023/03/27 09:17:15;;;;;;;;;;;;;;;;;;5115210;28;1961;-73
2023/03/27 09:19:43;;;;;;;;;;;;;;;;;;5115779;28;951;-73
2023/03/27 09:22:15;;;;;;;;;;;;;;;;;;5114002;28;1535;-73
2023/03/27 09:24:43;;;;;;;;;;;;;;;;;;5113889;28;1316;-74
2023/03/27 09:27:16;;;;;;;;;;;;;;;;;;5115054;28;889;-73
2023/03/27 09:29:42;;;;;;;;;;;;;;;;;;5114157;28;1182;-74
2023/03/27 09:32:12;;;;;;;;;;;;;;;;;;5114480;28;987;-73
2023/03/27 09:34:38;;;;;;;;;;;;;;;;;;5113653;28;1181;-74
2023/03/27 09:37:09;;;;;;;;;;;;;;;;;;5113628;28;1882;-74
2023/03/27 09:39:38;;;;;;;;;;;;;;;;;;5113671;28;1287;-73
2023/03/27 09:42:08;;;;;;;;;;;;;;;;;;5113633;28;1383;-73
2023/03/27 09:44:35;;;;;;;;;;;;;;;;;;5113166;28;1225;-73
2023/03/27 09:47:05;;;;;;;;;;;;;;;;;;5113154;28;1268;-73
2023/03/27 09:49:30;;;;;;;;;;;;;;;;;;5113273;28;1236;-73
2023/03/27 09:51:58;;;;;;;;;;;;;;;;;;5114905;28;839;-73
2023/03/27 09:54:24;;;;;;;;;;;;;;;;;;5114078;27;887;-73
2023/03/27 09:56:52;;;;;;;;;;;;;;;;;;5114853;28;1906;-73
2023/03/27 09:59:19;;;;;;;;;;;;;;;;;;5114947;28;899;-73
2023/03/27 10:01:46;;;;;;;;;;;;;;;;;;5114578;28;832;-73
2023/03/27 10:04:16;;;;;;;;;;;;;;;;;;5112899;28;1174;-74
2023/03/27 10:06:43;;;;;;;;;;;;;;;;;;5112858;28;1197;-74
2023/03/27 10:09:21;;;;;;;;;;;;;;;;;;5112987;28;1463;-74
2023/03/27 10:11:47;;;;;;;;;;;;;;;;;;5114626;28;769;-74
2023/03/27 10:14:16;;;;;;;;;;;;;;;;;;5113003;28;911;-74
2023/03/27 10:16:42;;;;;;;;;;;;;;;;;;5112284;28;1277;-74
2023/03/27 10:19:19;;;;;;;;;;;;;;;;;;5095057;28;1194;-74
2023/03/27 10:21:44;;;;;;;;;;;;;;;;;;5113525;27;918;-74
2023/03/27 10:24:15;;;;;;;;;;;;;;;;;;5112165;28;860;-74
2023/03/27 10:26:41;;;;;;;;;;;;;;;;;;5112158;28;1253;-74
2023/03/27 10:29:19;;;;;;;;;;;;;;;;;;5113358;28;887;-74
2023/03/27 10:31:51;;;;;;;;;;;;;;;;;;5111904;28;1194;-74
2023/03/27 10:34:37;;;;;;;;;;;;;;;;;;5112085;28;927;-74
2023/03/27 10:37:17;;;;;;;;;;;;;;;;;;5113455;28;1890;-74
2023/03/27 10:39:42;;;;;;;;;;;;;;;;;;5111912;28;1198;-74
2023/03/27 10:42:08;;;;;;;;;;;;;;;;;;5111642;28;1309;-74
2023/03/27 10:44:36;;;;;;;;;;;;;;;;;;5113357;28;828;-73
2023/03/27 10:47:03;;;;;;;;;;;;;;;;;;5112162;28;1009;-74
2023/03/27 10:49:40;;;;;;;;;;;;;;;;;;5111343;28;1189;-74
2023/03/27 10:52:20;;;;;;;;;;;;;;;;;;5112024;28;1284;-75
2023/03/27 10:55:00;;;;;;;;;;;;;;;;;;5112931;28;887;-74
2023/03/27 10:57:28;;;;;;;;;;;;;;;;;;5113059;28;1905;-74
2023/03/27 11:00:18;;;;;;;;;;;;;;;;;;5113407;28;848;-74
2023/03/27 11:02:51;;;;;;;;;;;;;;;;;;5113257;28;939;-74
2023/03/27 11:05:22;;;;;;;;;;;;;;;;;;5088758;28;1342;-73
2023/03/27 11:07:49;;;;;;;;;;;;;;;;;;5093159;28;892;-73
2023/03/27 11:10:22;;;;;;;;;;;;;;;;;;5093645;28;994;-74
2023/03/27 11:12:55;;;;;;;;;;;;;;;;;;5093293;28;904;-74
2023/03/27 11:15:32;;;;;;;;;;;;;;;;;;5092142;28;1209;-74
2023/03/27 11:18:10;;;;;;;;;;;;;;;;;;5094459;28;1898;-74
2023/03/27 11:20:43;;;;;;;;;;;;;;;;;;5092526;28;1194;-73
2023/03/27 11:23:12;;;;;;;;;;;;;;;;;;5092332;28;1194;-73
2023/03/27 11:25:45;;;;;;;;;;;;;;;;;;5091638;28;1263;-73
2023/03/27 11:28:18;;;;;;;;;;;;;;;;;;5094017;28;846;-73
2023/03/27 11:30:48;;;;;;;;;;;;;;;;;;5093185;28;880;-73
2023/03/27 11:33:32;;;;;;;;;;;;;;;;;;5092121;28;1219;-73
2023/03/27 11:36:07;;;;;;;;;;;;;;;;;;5093232;28;990;-73
2023/03/27 11:38:36;;;;;;;;;;;;;;;;;;5092378;28;1902;-73
2023/03/27 11:41:02;;;;;;;;;;;;;;;;;;5092031;28;1325;-73
2023/03/27 11:43:27;;;;;;;;;;;;;;;;;;5092476;28;899;-73
2023/03/27 11:45:53;;;;;;;;;;;;;;;;;;5074455;28;1281;-73
2023/03/27 11:48:31;;;;;;;;;;;;;;;;;;5092570;28;872;-72
2023/03/27 11:51:23;;;;;;;;;;;;;;;;;;5092321;28;868;-73
2023/03/27 11:54:07;;;;;;;;;;;;;;;;;;5076464;28;1119;-73
2023/03/27 11:56:35;;;;;;;;;;;;;;;;;;5096877;28;923;-73
2023/03/27 11:59:03;;;;;;;;;;;;;;;;;;5096269;28;1972;-73
2023/03/27 12:01:31;;;;;;;;;;;;;;;;;;5099283;28;876;-72
2023/03/27 12:04:03;;;;;;;;;;;;;;;;;;5103473;28;821;-73
2023/03/27 12:06:43;;;;;;;;;;;;;;;;;;5102122;28;1186;-73
2023/03/27 12:09:14;;;;;;;;;;;;;;;;;;5096038;28;880;-73
2023/03/27 12:12:03;;;;;;;;;;;;;;;;;;5095999;28;829;-73
2023/03/27 12:14:28;;;;;;;;;;;;;;;;;;5065381;28;1200;-73
2023/03/27 12:16:54;;;;;;;;;;;;;;;;;;5095352;28;1909;-73
2023/03/27 12:19:37;;;;;;;;;;;;;;;;;;5093918;28;1253;-73
2023/03/27 12:22:02;;;;;;;;;;;;;;;;;;5094322;28;1225;-73
2023/03/27 12:24:55;;;;;;;;;;;;;;;;;;5094020;28;1159;-73
2023/03/27 12:27:33;;;;;;;;;;;;;;;;;;5095131;28;876;-73
2023/03/27 12:29:58;;;;;;;;;;;;;;;;;;5094007;28;1501;-73
2023/03/27 12:32:32;;;;;;;;;;;;;;;;;;5095218;28;848;-73
2023/03/27 12:35:02;;;;;;;;;;;;;;;;;;5095534;28;840;-72
2023/03/27 12:37:47;;;;;;;;;;;;;;;;;;5094104;28;1886;-73
2023/03/27 12:40:24;;;;;;;;;;;;;;;;;;5093055;28;1259;-73
2023/03/27 12:42:51;;;;;;;;;;;;;;;;;;5094859;28;1222;-73
2023/03/27 12:45:22;;;;;;;;;;;;;;;;;;5096925;28;964;-73
2023/03/27 12:48:06;;;;;;;;;;;;;;;;;;5094534;28;1285;-71
2023/03/27 12:50:45;;;;;;;;;;;;;;;;;;5094801;28;1234;-73
2023/03/27 12:53:26;;;;;;;;;;;;;;;;;;5094177;28;1170;-73
2023/03/27 12:56:13;;;;;;;;;;;;;;;;;;5093681;28;1325;-73
2023/03/27 12:58:39;;;;;;;;;;;;;;;;;;5094419;28;1910;-73
2023/03/27 13:01:08;;;;;;;;;;;;;;;;;;5094489;28;1320;-73
2023/03/27 13:03:42;;;;;;;;;;;;;;;;;;5095266;28;856;-73
2023/03/27 13:06:34;;;;;;;;;;;;;;;;;;5094525;28;883;-74
2023/03/27 13:09:15;;;;;;;;;;;;;;;;;;5092701;28;1104;-71
2023/03/27 13:11:53;;;;;;;;;;;;;;;;;;5094753;28;876;-71
2023/03/27 13:14:24;;;;;;;;;;;;;;;;;;5094772;28;978;-71
2023/03/27 13:17:08;;;;;;;;;;;;;;;;;;5094365;28;911;-71
2023/03/27 13:19:33;;;;;;;;;;;;;;;;;;5094745;28;907;-71
2023/03/27 13:21:58;;;;;;;;;;;;;;;;;;5094472;28;1042;-72
2023/03/27 13:24:27;;;;;;;;;;;;;;;;;;5093125;28;1029;-71
2023/03/27 13:26:55;;;;;;;;;;;;;;;;;;5093445;28;896;-71
2023/03/27 13:29:21;;;;;;;;;;;;;;;;;;5092995;28;1182;-72
2023/03/27 13:31:48;;;;;;;;;;;;;;;;;;5092699;28;919;-70
2023/03/27 13:34:22;;;;;;;;;;;;;;;;;;5092820;28;1278;-71
2023/03/27 13:36:48;;;;;;;;;;;;;;;;;;5094404;28;1022;-71
2023/03/27 13:39:21;;;;;;;;;;;;;;;;;;5095984;28;1964;-72
2023/03/27 13:41:46;;;;;;;;;;;;;;;;;;5097840;28;1215;-72
2023/03/27 13:44:29;;;;;;;;;;;;;;;;;;5097588;28;1166;-72
2023/03/27 13:47:13;;;;;;;;;;;;;;;;;;5099071;28;864;-72
2023/03/27 13:49:56;;;;;;;;;;;;;;;;;;5099637;28;883;-72
2023/03/27 13:52:27;;;;;;;;;;;;;;;;;;5099401;28;824;-72
2023/03/27 13:55:05;;;;;;;;;;;;;;;;;;5098566;28;995;-72
2023/03/27 13:57:49;;;;;;;;;;;;;;;;;;5098525;28;1883;-71
2023/03/27 14:00:37;;;;;;;;;;;;;;;;;;5099910;28;1289;-72
2023/03/27 14:03:17;;;;;;;;;;;;;;;;;;5102713;28;998;-72
2023/03/27 14:05:56;;;;;;;;;;;;;;;;;;5107403;28;1483;-72
2023/03/27 14:08:22;;;;;;;;;;;;;;;;;;5097400;28;1274;-72
2023/03/27 14:11:09;;;;;;;;;;;;;;;;;;5098118;28;1206;-72
2023/03/27 14:13:48;;;;;;;;;;;;;;;;;;5100024;28;828;-73
2023/03/27 14:16:13;;;;;;;;;;;;;;;;;;5099770;28;828;-72
2023/03/27 14:18:43;;;;;;;;;;;;;;;;;;5098774;28;1898;-72
2023/03/27 14:21:16;;;;;;;;;;;;;;;;;;5098807;28;887;-71
2023/03/27 14:24:05;;;;;;;;;;;;;;;;;;5094226;28;1174;-72
2023/03/27 14:26:32;;;;;;;;;;;;;;;;;;5092790;28;1178;-72
2023/03/27 14:28:59;;;;;;;;;;;;;;;;;;5094531;28;885;-73
2023/03/27 14:31:25;;;;;;;;;;;;;;;;;;5092977;28;1103;-72
2023/03/27 14:33:59;;;;;;;;;;;;;;;;;;5094502;28;956;-72
2023/03/27 14:36:27;;;;;;;;;;;;;;;;;;5094553;28;816;-72
2023/03/27 14:38:53;;;;;;;;;;;;;;;;;;5092552;28;1963;-72
2023/03/27 14:41:20;;;;;;;;;;;;;;;;;;5093732;28;1169;-72
2023/03/27 14:43:49;;;;;;;;;;;;;;;;;;5093715;28;825;-72
2023/03/27 14:46:15;;;;;;;;;;;;;;;;;;5093895;28;966;-72
2023/03/27 14:48:43;;;;;;;;;;;;;;;;;;5092642;28;853;-71
2023/03/27 14:51:12;;;;;;;;;;;;;;;;;;5093663;28;895;-71
2023/03/27 14:53:43;;;;;;;;;;;;;;;;;;5093719;28;880;-71
2023/03/27 14:56:26;;;;;;;;;;;;;;;;;;5091738;28;1304;-72
2023/03/27 14:58:54;;;;;;;;;;;;;;;;;;5091592;28;1957;-72
2023/03/27 15:01:20;;;;;;;;;;;;;;;;;;5091800;28;1222;-72
2023/03/27 15:03:46;;;;;;;;;;;;;;;;;;5091712;28;836;-71
2023/03/27 15:06:16;;;;;;;;;;;;;;;;;;5091370;28;1450;-71
2023/03/27 15:08:45;;;;;;;;;;;;;;;;;;5091480;28;1217;-71
2023/03/27 15:11:13;;;;;;;;;;;;;;;;;;5091094;28;1280;-72
2023/03/27 15:13:38;;;;;;;;;;;;;;;;;;5091454;28;1123;-70
2023/03/27 15:16:05;;;;;;;;;;;;;;;;;;5092232;28;877;-71
2023/03/27 15:18:48;;;;;;;;;;;;;;;;;;5091044;28;1953;-71
2023/03/27 15:21:19;;;;;;;;;;;;;;;;;;5090683;28;1189;-71
2023/03/27 15:23:57;;;;;;;;;;;;;;;;;;5091381;28;1281;-71
2023/03/27 15:26:27;;;;;;;;;;;;;;;;;;5090802;28;1328;-72
2023/03/27 15:29:12;;;;;;;;;;;;;;;;;;5092194;28;1254;-72
2023/03/27 15:31:42;;;;;;;;;;;;;;;;;;5096772;28;832;-71
2023/03/27 15:34:19;;;;;;;;;;;;;;;;;;5096166;28;1007;-71
2023/03/27 15:36:49;;;;;;;;;;;;;;;;;;5094958;28;1189;-71
2023/03/27 15:39:21;;;;;;;;;;;;;;;;;;5097033;28;1957;-70
2023/03/27 15:41:50;;;;;;;;;;;;;;;;;;5096150;28;1258;-71
2023/03/27 15:44:17;;;;;;;;;;;;;;;;;;5096378;28;836;-71
2023/03/27 15:46:47;;;;;;;;;;;;;;;;;;5096303;28;857;-71
2023/03/27 15:49:18;;;;;;;;;;;;;;;;;;5096111;28;875;-71
2023/03/27 15:51:43;;;;;;;;;;;;;;;;;;5096575;28;876;-71
2023/03/27 15:54:22;;;;;;;;;;;;;;;;;;5095192;28;829;-71
2023/03/27 15:56:48;;;;;;;;;;;;;;;;;;5096955;28;925;-71
2023/03/27 15:59:14;;;;;;;;;;;;;;;;;;5096226;28;1886;-71
2023/03/27 16:01:52;;;;;;;;;;;;;;;;;;5095608;28;1195;-72
2023/03/27 16:04:26;;;;;;;;;;;;;;;;;;5115970;28;929;-72
2023/03/27 16:06:53;;;;;;;;;;;;;;;;;;5114667;28;1178;-71
2023/03/27 16:09:24;;;;;;;;;;;;;;;;;;5116833;28;820;-71
2023/03/27 16:11:51;;;;;;;;;;;;;;;;;;5117469;28;863;-71
2023/03/27 16:14:19;;;;;;;;;;;;;;;;;;5115107;28;1162;-71
2023/03/27 16:16:45;;;;;;;;;;;;;;;;;;5117164;28;860;-71
2023/03/27 16:19:11;;;;;;;;;;;;;;;;;;5098362;28;1983;-71
2023/03/27 16:21:37;;;;;;;;;;;;;;;;;;5116686;28;850;-71
2023/03/27 16:24:03;;;;;;;;;;;;;;;;;;5115335;28;1154;-72
2023/03/27 16:26:30;;;;;;;;;;;;;;;;;;5115626;28;1292;-72
2023/03/27 16:28:58;;;;;;;;;;;;;;;;;;5117298;28;876;-72
2023/03/27 16:31:23;;;;;;;;;;;;;;;;;;5116433;28;901;-71
2023/03/27 16:33:49;;;;;;;;;;;;;;;;;;5116594;28;927;-71
2023/03/27 16:36:17;;;;;;;;;;;;;;;;;;5116124;28;883;-71
2023/03/27 16:38:43;;;;;;;;;;;;;;;;;;5115815;28;1893;-72
2023/03/27 16:41:12;;;;;;;;;;;;;;;;;;5106839;28;1242;-72
2023/03/27 16:43:38;;;;;;;;;;;;;;;;;;5113031;28;1118;-72
2023/03/27 16:46:03;;;;;;;;;;;;;;;;;;5114045;28;1146;-72
2023/03/27 16:48:28;;;;;;;;;;;;;;;;;;5114266;28;1280;-72
2023/03/27 16:50:55;;;;;;;;;;;;;;;;;;5114293;28;975;-72
2023/03/27 16:53:20;;;;;;;;;;;;;;;;;;5115319;28;1233;-72
2023/03/27 16:55:45;;;;;;;;;;;;;;;;;;5113875;28;1240;-72
2023/03/27 16:58:11;;;;;;;;;;;;;;;;;;5114906;28;1967;-73
2023/03/27 17:00:36;;;;;;;;;;;;;;;;;;5115340;28;1061;-73
2023/03/27 17:03:02;;;;;;;;;;;;;;;;;;5113629;28;1304;-73
2023/03/27 17:05:32;;;;;;;;;;;;;;;;;;5113853;28;1256;-73
2023/03/27 17:07:58;;;;;;;;;;;;;;;;;;5097749;28;1230;-73
2023/03/27 17:10:23;;;;;;;;;;;;;;;;;;5096339;28;1332;-74
2023/03/27 17:12:48;;;;;;;;;;;;;;;;;;5115068;28;970;-74
2023/03/27 17:15:14;;;;;;;;;;;;;;;;;;5113143;28;884;-74
2023/03/27 17:17:40;;;;;;;;;;;;;;;;;;5113473;28;1922;-74
2023/03/27 17:20:06;;;;;;;;;;;;;;;;;;5096542;28;1066;-74
2023/03/27 17:22:32;;;;;;;;;;;;;;;;;;5113457;28;1281;-74
2023/03/27 17:24:59;;;;;;;;;;;;;;;;;;5114730;28;1049;-74